Time;durP1;ratioP1;P1;durP2;ratioP2;P2;SDS_P1;SDS_P2;PMS_P1;PMS_P2;Temp;Humidity;BMP_temperature;BMP_pressure;BME280_temperature;BME280_humidity;BME280_pressure;Samples;Min_cycle;Max_cycle;Signal;HPM_P1;HPM_P2
2023/04/01 00:01:50;;;;;;;17.02;13.13;;;;;;;;;;6307988;22;20019;-64
2023/04/01 00:04:18;;;;;;;18.67;14.45;;;;;;;;;;6307601;22;20015;-64
2023/04/01 00:06:47;;;;;;;17.90;14.18;;;;;;;;;;6308161;22;20035;-63
2023/04/01 00:09:14;;;;;;;17.73;14.32;;;;;;;;;;6307882;22;20015;-64
2023/04/01 00:11:42;;;;;;;20.73;14.00;;;;;;;;;;6280016;22;20019;-64
2023/04/01 00:14:10;;;;;;;19.73;14.52;;;;;;;;;;6307939;22;20012;-64
2023/04/01 00:16:37;;;;;;;20.00;14.85;;;;;;;;;;6307576;22;20348;-63
2023/04/01 00:19:05;;;;;;;16.25;13.73;;;;;;;;;;6307362;22;20016;-64
2023/04/01 00:21:33;;;;;;;18.30;14.90;;;;;;;;;;6307628;22;20019;-63
2023/04/01 00:24:00;;;;;;;21.13;14.52;;;;;;;;;;6307368;22;20391;-64
2023/04/01 00:26:28;;;;;;;15.57;12.23;;;;;;;;;;6280219;22;20026;-64
2023/04/01 00:28:55;;;;;;;16.25;12.15;;;;;;;;;;6280083;22;20027;-64
2023/04/01 00:31:23;;;;;;;14.75;11.90;;;;;;;;;;6280159;22;20019;-63
2023/04/01 00:33:51;;;;;;;16.52;12.00;;;;;;;;;;6280197;22;20069;-64
2023/04/01 00:36:21;;;;;;;15.80;11.98;;;;;;;;;;6307367;22;20015;-64
2023/04/01 00:38:49;;;;;;;16.73;12.55;;;;;;;;;;6280178;22;20029;-64
2023/04/01 00:41:17;;;;;;;15.93;12.20;;;;;;;;;;6307997;22;20085;-64
2023/04/01 00:43:46;;;;;;;16.52;11.75;;;;;;;;;;6279610;22;20345;-64
2023/04/01 00:46:13;;;;;;;18.80;15.05;;;;;;;;;;6279867;22;20068;-64
2023/04/01 00:48:55;;;;;;;19.50;14.85;;;;;;;;;;6307736;22;20023;-64
2023/04/01 00:51:26;;;;;;;16.75;13.98;;;;;;;;;;6307482;22;20054;-63
2023/04/01 00:53:54;;;;;;;21.77;14.23;;;;;;;;;;6307530;22;20090;-64
2023/04/01 00:56:23;;;;;;;19.77;13.75;;;;;;;;;;6280099;22;20015;-64
2023/04/01 00:58:55;;;;;;;19.70;14.43;;;;;;;;;;6279811;22;20042;-64
2023/04/01 01:01:24;;;;;;;20.35;14.68;;;;;;;;;;6307382;22;20107;-64
2023/04/01 01:03:52;;;;;;;19.20;15.18;;;;;;;;;;6280184;22;20026;-64
2023/04/01 01:06:39;;;;;;;22.08;15.88;;;;;;;;;;6279927;22;20678;-63
2023/04/01 01:09:25;;;;;;;24.50;18.30;;;;;;;;;;6279780;22;20062;-64
2023/04/01 01:12:05;;;;;;;25.83;17.30;;;;;;;;;;6280153;22;20020;-63
2023/04/01 01:14:33;;;;;;;22.75;16.83;;;;;;;;;;6279842;22;20022;-64
2023/04/01 01:17:17;;;;;;;19.58;14.93;;;;;;;;;;6279900;22;20023;-65
2023/04/01 01:20:06;;;;;;;17.50;14.23;;;;;;;;;;6279548;22;20015;-64
2023/04/01 01:23:01;;;;;;;19.25;13.40;;;;;;;;;;6279578;22;20042;-64
2023/04/01 01:25:35;;;;;;;18.90;13.00;;;;;;;;;;6279617;22;20089;-63
2023/04/01 01:28:16;;;;;;;19.88;12.68;;;;;;;;;;6279984;22;20019;-64
2023/04/01 01:30:58;;;;;;;20.30;14.32;;;;;;;;;;6306982;22;20086;-65
2023/04/01 01:33:33;;;;;;;17.65;13.55;;;;;;;;;;6306969;22;20389;-64
2023/04/01 01:36:04;;;;;;;18.00;14.40;;;;;;;;;;6279481;22;20023;-64
2023/04/01 01:38:34;;;;;;;19.45;13.45;;;;;;;;;;6279585;22;20409;-64
2023/04/01 01:41:06;;;;;;;19.30;14.57;;;;;;;;;;6279483;22;20454;-64
2023/04/01 01:43:37;;;;;;;19.33;13.75;;;;;;;;;;6278802;22;20470;-64
2023/04/01 01:46:17;;;;;;;17.17;12.95;;;;;;;;;;6279377;22;20019;-64
2023/04/01 01:48:45;;;;;;;15.70;12.13;;;;;;;;;;6279537;22;20023;-64
2023/04/01 01:51:12;;;;;;;16.00;12.95;;;;;;;;;;6279431;22;20016;-64
2023/04/01 01:53:40;;;;;;;16.73;13.02;;;;;;;;;;6279507;22;20098;-64
2023/04/01 01:56:08;;;;;;;16.80;12.40;;;;;;;;;;6254318;22;20019;-64
2023/04/01 01:58:42;;;;;;;16.45;12.68;;;;;;;;;;6279440;22;20094;-64
2023/04/01 02:01:17;;;;;;;16.10;12.18;;;;;;;;;;6279363;22;20372;-64
2023/04/01 02:03:45;;;;;;;15.68;11.68;;;;;;;;;;6278965;22;20417;-63
2023/04/01 02:06:16;;;;;;;16.77;11.48;;;;;;;;;;6279624;22;20064;-64
2023/04/01 02:08:46;;;;;;;16.38;11.77;;;;;;;;;;6279525;22;20019;-63
2023/04/01 02:11:15;;;;;;;17.67;11.48;;;;;;;;;;6279533;22;20019;-64
2023/04/01 02:13:56;;;;;;;14.35;11.07;;;;;;;;;;6279767;22;20024;-64
2023/04/01 02:16:29;;;;;;;14.80;11.60;;;;;;;;;;6279512;22;20041;-65
2023/04/01 02:18:58;;;;;;;14.10;11.20;;;;;;;;;;6279519;22;20353;-64
2023/04/01 02:21:28;;;;;;;14.60;11.40;;;;;;;;;;6279278;22;20049;-64
2023/04/01 02:23:57;;;;;;;13.77;10.88;;;;;;;;;;6279608;22;20016;-64
2023/04/01 02:26:26;;;;;;;15.02;11.38;;;;;;;;;;6279334;22;20011;-64
2023/04/01 02:28:54;;;;;;;15.15;10.75;;;;;;;;;;6279404;22;20023;-64
2023/04/01 02:31:22;;;;;;;12.50;10.48;;;;;;;;;;6279644;22;20026;-63
2023/04/01 02:33:50;;;;;;;14.65;10.80;;;;;;;;;;6279287;22;20106;-64
2023/04/01 02:36:17;;;;;;;13.50;11.13;;;;;;;;;;6279405;22;20024;-64
2023/04/01 02:38:46;;;;;;;16.67;11.77;;;;;;;;;;6279388;22;20023;-64
2023/04/01 02:41:14;;;;;;;16.60;11.43;;;;;;;;;;6279308;22;20354;-64
2023/04/01 02:43:41;;;;;;;17.00;12.02;;;;;;;;;;6279185;22;20019;-64
2023/04/01 02:46:09;;;;;;;13.80;10.85;;;;;;;;;;6279050;22;20016;-64
2023/04/01 02:48:37;;;;;;;14.68;11.07;;;;;;;;;;6279134;22;20053;-63
2023/04/01 02:51:04;;;;;;;14.65;11.02;;;;;;;;;;6279089;22;20538;-64
2023/04/01 02:53:32;;;;;;;14.25;10.75;;;;;;;;;;6279233;22;20019;-64
2023/04/01 02:55:59;;;;;;;11.80;10.15;;;;;;;;;;6281028;22;20057;-64
2023/04/01 02:58:27;;;;;;;16.00;11.23;;;;;;;;;;6281312;22;20033;-64
2023/04/01 03:00:55;;;;;;;12.77;10.77;;;;;;;;;;6281059;22;20072;-65
2023/04/01 03:03:22;;;;;;;13.10;9.70;;;;;;;;;;6280822;22;20050;-63
2023/04/01 03:05:50;;;;;;;11.95;10.15;;;;;;;;;;6280740;22;20051;-64
2023/04/01 03:08:18;;;;;;;14.02;11.23;;;;;;;;;;6280948;22;20020;-64
2023/04/01 03:10:46;;;;;;;12.25;10.00;;;;;;;;;;6281098;22;20023;-63
2023/04/01 03:13:13;;;;;;;15.52;10.65;;;;;;;;;;6280875;22;20023;-64
2023/04/01 03:15:41;;;;;;;17.55;11.73;;;;;;;;;;6280814;22;20169;-63
2023/04/01 03:18:08;;;;;;;16.67;11.20;;;;;;;;;;6280954;22;20103;-64
2023/04/01 03:20:36;;;;;;;15.93;10.93;;;;;;;;;;6280725;22;20015;-63
2023/04/01 03:23:03;;;;;;;14.43;10.40;;;;;;;;;;6281111;22;20046;-64
2023/04/01 03:25:31;;;;;;;15.38;10.63;;;;;;;;;;6280687;22;20102;-64
2023/04/01 03:28:00;;;;;;;16.85;11.15;;;;;;;;;;6280769;22;20052;-64
2023/04/01 03:30:30;;;;;;;16.40;11.25;;;;;;;;;;6280709;22;20103;-64
2023/04/01 03:33:00;;;;;;;17.83;11.15;;;;;;;;;;6280776;22;20027;-64
2023/04/01 03:35:27;;;;;;;19.00;13.27;;;;;;;;;;6280678;22;20025;-64
2023/04/01 03:37:55;;;;;;;16.40;11.20;;;;;;;;;;6280652;22;20027;-64
2023/04/01 03:40:23;;;;;;;16.65;11.38;;;;;;;;;;6280688;22;20015;-64
2023/04/01 03:42:51;;;;;;;13.73;10.57;;;;;;;;;;6280774;22;20047;-64
2023/04/01 03:45:19;;;;;;;16.80;11.65;;;;;;;;;;6280888;22;20053;-64
2023/04/01 03:47:46;;;;;;;16.98;12.13;;;;;;;;;;6308061;22;20025;-63
2023/04/01 03:50:14;;;;;;;13.68;11.45;;;;;;;;;;6280764;22;20019;-64
2023/04/01 03:52:42;;;;;;;16.80;11.75;;;;;;;;;;6280708;22;20038;-64
2023/04/01 03:55:09;;;;;;;20.17;12.13;;;;;;;;;;6280618;22;20015;-62
2023/04/01 03:57:39;;;;;;;14.95;12.00;;;;;;;;;;6280445;22;20027;-64
2023/04/01 04:00:15;;;;;;;14.57;11.70;;;;;;;;;;6257075;22;20452;-63
2023/04/01 04:02:45;;;;;;;15.52;12.00;;;;;;;;;;6280462;22;20461;-63
2023/04/01 04:05:18;;;;;;;14.27;11.32;;;;;;;;;;6279971;22;20019;-64
2023/04/01 04:07:46;;;;;;;13.98;10.98;;;;;;;;;;6254919;22;20098;-63
2023/04/01 04:10:13;;;;;;;13.13;10.55;;;;;;;;;;6280410;22;20019;-64
2023/04/01 04:12:40;;;;;;;14.48;10.90;;;;;;;;;;6280567;22;20092;-63
2023/04/01 04:15:08;;;;;;;16.27;11.38;;;;;;;;;;6280235;22;20015;-63
2023/04/01 04:17:36;;;;;;;11.57;10.15;;;;;;;;;;6280338;22;20023;-64
2023/04/01 04:20:04;;;;;;;13.30;10.70;;;;;;;;;;6280318;22;20049;-64
2023/04/01 04:22:32;;;;;;;14.10;11.02;;;;;;;;;;6280224;22;20069;-64
2023/04/01 04:25:00;;;;;;;17.88;11.20;;;;;;;;;;6280096;22;20330;-64
2023/04/01 04:27:28;;;;;;;13.70;10.73;;;;;;;;;;6280270;22;20046;-64
2023/04/01 04:30:06;;;;;;;16.67;11.48;;;;;;;;;;6279889;22;20023;-63
2023/04/01 04:32:34;;;;;;;15.57;11.10;;;;;;;;;;6280219;22;20397;-63
2023/04/01 04:35:01;;;;;;;15.25;10.60;;;;;;;;;;6279676;22;20023;-64
2023/04/01 04:37:29;;;;;;;14.75;12.48;;;;;;;;;;6279915;22;20706;-63
2023/04/01 04:39:57;;;;;;;16.83;12.45;;;;;;;;;;6254882;22;20019;-63
2023/04/01 04:42:25;;;;;;;23.02;13.55;;;;;;;;;;6279994;22;20023;-64
2023/04/01 04:44:59;;;;;;;27.52;15.52;;;;;;;;;;6279888;22;20069;-64
2023/04/01 04:47:27;;;;;;;29.60;18.33;;;;;;;;;;6280106;22;20019;-64
2023/04/01 04:49:55;;;;;;;31.33;20.15;;;;;;;;;;6279872;22;20030;-64
2023/04/01 04:52:22;;;;;;;26.77;17.83;;;;;;;;;;6280216;22;20015;-63
2023/04/01 04:54:50;;;;;;;27.30;17.40;;;;;;;;;;6279920;22;20472;-64
2023/04/01 04:57:17;;;;;;;23.77;16.25;;;;;;;;;;6280316;22;20585;-63
2023/04/01 04:59:52;;;;;;;20.88;15.25;;;;;;;;;;6279809;22;20468;-64
2023/04/01 05:02:43;;;;;;;18.65;13.80;;;;;;;;;;6306077;22;20023;-63
2023/04/01 05:05:10;;;;;;;24.38;13.73;;;;;;;;;;6279660;22;20050;-64
2023/04/01 05:07:38;;;;;;;20.05;13.82;;;;;;;;;;6280022;22;20341;-63
2023/04/01 05:10:06;;;;;;;19.65;15.02;;;;;;;;;;6279877;22;20080;-63
2023/04/01 05:12:37;;;;;;;19.70;15.43;;;;;;;;;;6279934;22;20345;-64
2023/04/01 05:15:06;;;;;;;21.50;15.80;;;;;;;;;;6279690;22;20023;-62
2023/04/01 05:17:33;;;;;;;21.80;14.10;;;;;;;;;;6279744;22;20019;-63
2023/04/01 05:20:03;;;;;;;21.60;14.10;;;;;;;;;;6279774;22;20022;-63
2023/04/01 05:22:30;;;;;;;56.03;37.40;;;;;;;;;;6279661;22;20015;-63
2023/04/01 05:24:58;;;;;;;23.65;15.60;;;;;;;;;;6279261;22;20351;-63
2023/04/01 05:27:26;;;;;;;13.52;10.10;;;;;;;;;;6254231;22;20089;-62
2023/04/01 05:29:53;;;;;;;14.40;10.23;;;;;;;;;;6279650;22;20023;-63
2023/04/01 05:32:50;;;;;;;14.95;10.68;;;;;;;;;;6279861;22;20513;-63
2023/04/01 05:35:17;;;;;;;18.40;14.65;;;;;;;;;;6279213;22;20019;-63
2023/04/01 05:37:45;;;;;;;15.70;14.10;;;;;;;;;;6279608;22;20043;-62
2023/04/01 05:40:12;;;;;;;19.58;15.35;;;;;;;;;;6279192;22;20039;-63
2023/04/01 05:42:40;;;;;;;16.92;15.13;;;;;;;;;;6279163;22;20019;-63
2023/04/01 05:45:08;;;;;;;16.13;14.00;;;;;;;;;;6279328;22;20019;-63
2023/04/01 05:47:54;;;;;;;16.02;12.65;;;;;;;;;;6306740;22;20103;-63
2023/04/01 05:50:22;;;;;;;16.17;12.40;;;;;;;;;;6279311;22;20098;-62
2023/04/01 05:52:49;;;;;;;15.30;13.30;;;;;;;;;;6279386;22;20069;-64
2023/04/01 05:55:17;;;;;;;15.50;12.55;;;;;;;;;;6279467;22;20015;-63
2023/04/01 05:57:46;;;;;;;14.70;13.00;;;;;;;;;;6277900;22;20327;-63
2023/04/01 06:00:14;;;;;;;17.17;12.45;;;;;;;;;;6277839;22;20528;-63
2023/04/01 06:02:42;;;;;;;18.48;12.23;;;;;;;;;;6277994;22;20165;-62
2023/04/01 06:05:21;;;;;;;17.55;12.65;;;;;;;;;;6278255;22;20029;-63
2023/04/01 06:07:48;;;;;;;21.20;12.55;;;;;;;;;;6254014;22;20019;-63
2023/04/01 06:10:17;;;;;;;15.98;11.73;;;;;;;;;;6306886;22;20020;-63
2023/04/01 06:12:50;;;;;;;15.68;12.65;;;;;;;;;;6279027;22;20019;-63
2023/04/01 06:15:26;;;;;;;16.40;12.38;;;;;;;;;;6279359;22;20019;-62
2023/04/01 06:18:02;;;;;;;21.40;12.70;;;;;;;;;;6307014;22;20056;-63
2023/04/01 06:20:38;;;;;;;16.27;10.95;;;;;;;;;;6279111;22;20057;-62
2023/04/01 06:23:06;;;;;;;15.75;11.85;;;;;;;;;;6279027;22;20025;-63
2023/04/01 06:25:54;;;;;;;14.43;11.23;;;;;;;;;;6306156;22;20048;-63
2023/04/01 06:28:25;;;;;;;15.68;12.63;;;;;;;;;;6264462;22;20319;-62
2023/04/01 06:31:00;;;;;;;14.02;12.07;;;;;;;;;;6281060;22;20449;-62
2023/04/01 06:33:54;;;;;;;17.42;12.02;;;;;;;;;;6280903;22;20020;-62
2023/04/01 06:36:34;;;;;;;17.83;12.60;;;;;;;;;;6281069;22;20388;-63
2023/04/01 06:39:21;;;;;;;16.27;12.27;;;;;;;;;;6281159;22;20025;-63
2023/04/01 06:42:08;;;;;;;20.55;13.48;;;;;;;;;;6280430;22;20098;-63
2023/04/01 06:44:37;;;;;;;20.02;14.05;;;;;;;;;;6281149;22;20729;-63
2023/04/01 06:47:29;;;;;;;17.67;13.93;;;;;;;;;;6307080;22;20169;-63
2023/04/01 06:50:22;;;;;;;16.55;14.15;;;;;;;;;;6306934;22;20481;-64
2023/04/01 06:53:27;;;;;;;20.17;14.93;;;;;;;;;;6285407;22;20356;-64
2023/04/01 06:56:29;;;;;;;18.15;13.68;;;;;;;;;;6306952;22;20023;-62
2023/04/01 06:59:00;;;;;;;20.15;14.45;;;;;;;;;;6280863;22;20027;-62
2023/04/01 07:01:31;;;;;;;19.63;14.05;;;;;;;;;;6280881;22;20019;-62
2023/04/01 07:04:22;;;;;;;20.55;15.13;;;;;;;;;;6280796;22;20030;-63
2023/04/01 07:07:22;;;;;;;22.38;15.25;;;;;;;;;;6269795;22;20023;-63
2023/04/01 07:10:00;;;;;;;22.25;14.45;;;;;;;;;;6222538;22;20015;-63
2023/04/01 07:12:53;;;;;;;16.23;12.25;;;;;;;;;;6307871;22;20030;-62
2023/04/01 07:15:41;;;;;;;17.88;12.60;;;;;;;;;;6307955;22;20057;-63
2023/04/01 07:18:17;;;;;;;21.25;15.25;;;;;;;;;;6280615;22;20451;-63
2023/04/01 07:20:45;;;;;;;18.87;14.93;;;;;;;;;;6280501;22;20402;-63
2023/04/01 07:23:36;;;;;;;17.35;13.70;;;;;;;;;;6280769;22;20251;-63
2023/04/01 07:26:24;;;;;;;22.35;15.25;;;;;;;;;;6307280;22;20449;-62
2023/04/01 07:29:01;;;;;;;23.83;15.13;;;;;;;;;;6307926;22;20458;-63
2023/04/01 07:31:58;;;;;;;23.23;17.33;;;;;;;;;;6280790;22;20023;-63
2023/04/01 07:34:31;;;;;;;19.90;15.70;;;;;;;;;;6279569;22;20460;-64
2023/04/01 07:37:14;;;;;;;18.40;13.77;;;;;;;;;;6280272;22;20106;-65
2023/04/01 07:39:48;;;;;;;17.73;13.07;;;;;;;;;;6280163;22;20023;-63
2023/04/01 07:42:46;;;;;;;16.95;12.70;;;;;;;;;;6279271;22;20080;-63
2023/04/01 07:45:16;;;;;;;21.33;13.95;;;;;;;;;;6280213;22;20468;-63
2023/04/01 07:48:03;;;;;;;18.38;14.13;;;;;;;;;;6307170;22;20521;-63
2023/04/01 07:50:40;;;;;;;16.95;12.68;;;;;;;;;;6279869;22;20065;-64
2023/04/01 07:53:18;;;;;;;18.33;13.10;;;;;;;;;;6279904;22;20019;-64
2023/04/01 07:55:48;;;;;;;19.52;14.07;;;;;;;;;;6279434;22;20018;-64
2023/04/01 07:58:24;;;;;;;22.77;15.48;;;;;;;;;;6306994;22;20053;-63
2023/04/01 08:00:59;;;;;;;21.77;15.40;;;;;;;;;;6278581;22;20098;-62
2023/04/01 08:03:36;;;;;;;23.83;15.55;;;;;;;;;;6280360;22;20019;-61
2023/04/01 08:06:15;;;;;;;21.80;15.85;;;;;;;;;;6280214;22;20098;-61
2023/04/01 08:08:47;;;;;;;23.95;15.05;;;;;;;;;;6280509;22;20433;-66
2023/04/01 08:12:11;;;;;;;18.55;14.43;;;;;;;;;;6307684;22;20327;-65
2023/04/01 08:15:14;;;;;;;21.75;14.43;;;;;;;;;;6182772;23;20075;-65
2023/04/01 08:18:29;;;;;;;22.70;15.10;;;;;;;;;;6157990;23;20020;-67
2023/04/01 08:20:59;;;;;;;22.52;15.80;;;;;;;;;;6280105;22;20019;-67
2023/04/01 08:23:47;;;;;;;31.38;21.20;;;;;;;;;;6279660;22;20140;-66
2023/04/01 08:26:21;;;;;;;53.55;37.67;;;;;;;;;;6279759;22;20019;-66
2023/04/01 08:28:55;;;;;;;78.93;50.83;;;;;;;;;;6307714;22;20015;-65
2023/04/01 08:31:24;;;;;;;61.88;40.25;;;;;;;;;;6280091;22;20023;-67
2023/04/01 08:33:54;;;;;;;48.88;36.33;;;;;;;;;;6279926;22;20081;-67
2023/04/01 08:36:24;;;;;;;56.30;41.45;;;;;;;;;;6279972;22;20022;-66
2023/04/01 08:39:12;;;;;;;57.28;45.20;;;;;;;;;;6279577;22;20461;-67
2023/04/01 08:41:55;;;;;;;55.83;44.97;;;;;;;;;;6280077;22;20046;-67
2023/04/01 08:44:40;;;;;;;50.67;41.63;;;;;;;;;;6307507;22;20115;-70
2023/04/01 08:47:08;;;;;;;46.78;38.95;;;;;;;;;;6278781;22;20019;-70
2023/04/01 08:49:35;;;;;;;42.05;34.63;;;;;;;;;;6279080;22;20015;-70
2023/04/01 08:52:22;;;;;;;41.58;31.60;;;;;;;;;;6279475;22;20057;-71
2023/04/01 08:55:15;;;;;;;52.53;33.30;;;;;;;;;;6307099;22;20018;-69
2023/04/01 08:58:01;;;;;;;31.55;23.60;;;;;;;;;;6257022;22;20031;-69
2023/04/01 09:00:51;;;;;;;26.42;17.00;;;;;;;;;;6279333;22;20019;-70
2023/04/01 09:03:38;;;;;;;23.95;15.93;;;;;;;;;;6279969;22;20485;-67
2023/04/01 09:06:18;;;;;;;23.27;15.00;;;;;;;;;;6279498;22;20019;-71
2023/04/01 09:09:10;;;;;;;16.48;12.57;;;;;;;;;;6279668;22;20090;-70
2023/04/01 09:11:53;;;;;;;22.90;14.52;;;;;;;;;;6279536;22;20129;-71
2023/04/01 09:14:36;;;;;;;21.17;12.43;;;;;;;;;;6277287;22;20012;-70
2023/04/01 09:17:22;;;;;;;18.83;12.48;;;;;;;;;;6306321;22;20086;-70
2023/04/01 09:19:58;;;;;;;18.52;13.98;;;;;;;;;;6279669;22;20100;-70
2023/04/01 09:22:42;;;;;;;17.10;12.63;;;;;;;;;;6279196;22;20383;-70
2023/04/01 09:25:30;;;;;;;22.52;13.85;;;;;;;;;;6278221;22;20025;-71
2023/04/01 09:27:58;;;;;;;24.75;14.05;;;;;;;;;;6278037;22;20045;-71
2023/04/01 09:30:25;;;;;;;23.40;14.25;;;;;;;;;;6278616;22;20034;-70
2023/04/01 09:33:07;;;;;;;20.98;16.33;;;;;;;;;;6278191;22;20042;-70
2023/04/01 09:35:54;;;;;;;21.65;14.68;;;;;;;;;;6279406;22;20026;-69
2023/04/01 09:38:23;;;;;;;20.30;13.75;;;;;;;;;;6306547;22;20019;-69
2023/04/01 09:40:56;;;;;;;22.02;16.13;;;;;;;;;;6278955;22;20019;-69
2023/04/01 09:43:39;;;;;;;23.00;16.15;;;;;;;;;;6279007;22;20046;-70
2023/04/01 09:46:07;;;;;;;20.73;15.30;;;;;;;;;;6279105;22;20027;-70
2023/04/01 09:48:53;;;;;;;24.08;16.60;;;;;;;;;;6279398;22;20118;-69
2023/04/01 09:51:39;;;;;;;22.02;15.25;;;;;;;;;;6279143;22;20355;-69
2023/04/01 09:54:14;;;;;;;16.08;12.35;;;;;;;;;;6279229;22;20026;-70
2023/04/01 09:56:42;;;;;;;20.88;13.18;;;;;;;;;;6279229;22;20021;-69
2023/04/01 09:59:15;;;;;;;19.55;12.30;;;;;;;;;;6278541;22;20034;-69
2023/04/01 10:02:15;;;;;;;17.75;11.57;;;;;;;;;;6306191;22;20345;-69
2023/04/01 10:04:57;;;;;;;16.80;11.68;;;;;;;;;;6278961;22;20027;-69
2023/04/01 10:07:31;;;;;;;18.98;11.75;;;;;;;;;;6279184;22;20073;-70
2023/04/01 10:10:01;;;;;;;16.73;12.02;;;;;;;;;;6279124;22;20026;-69
2023/04/01 10:12:48;;;;;;;15.93;10.85;;;;;;;;;;6278714;22;20065;-69
2023/04/01 10:15:29;;;;;;;15.02;10.68;;;;;;;;;;6278347;22;20019;-65
2023/04/01 10:18:18;;;;;;;14.20;9.80;;;;;;;;;;6278164;22;20069;-67
2023/04/01 10:21:00;;;;;;;14.07;10.35;;;;;;;;;;6305967;22;20360;-68
2023/04/01 10:23:39;;;;;;;14.80;10.13;;;;;;;;;;6278823;22;20138;-68
2023/04/01 10:26:13;;;;;;;15.48;9.32;;;;;;;;;;6277680;22;20331;-67
2023/04/01 10:28:55;;;;;;;14.57;9.57;;;;;;;;;;6278155;22;20015;-67
2023/04/01 10:31:50;;;;;;;13.75;9.30;;;;;;;;;;6279310;22;20022;-68
2023/04/01 10:34:39;;;;;;;15.48;9.70;;;;;;;;;;6278982;22;20057;-68
2023/04/01 10:37:16;;;;;;;14.43;10.32;;;;;;;;;;6278740;22;20104;-69
2023/04/01 10:39:53;;;;;;;12.20;9.27;;;;;;;;;;6278390;22;20023;-70
2023/04/01 10:42:40;;;;;;;12.80;9.32;;;;;;;;;;6278052;22;20068;-68
2023/04/01 10:45:34;;;;;;;16.05;11.68;;;;;;;;;;6288727;22;20019;-71
2023/04/01 10:48:21;;;;;;;28.73;14.65;;;;;;;;;;6276931;22;20038;-70
2023/04/01 10:50:59;;;;;;;16.10;9.27;;;;;;;;;;6277920;22;20015;-70
2023/04/01 10:53:37;;;;;;;13.50;7.82;;;;;;;;;;6278651;22;20020;-69
2023/04/01 10:56:35;;;;;;;8.48;5.78;;;;;;;;;;6285714;22;20031;-69
2023/04/01 10:59:40;;;;;;;9.80;7.07;;;;;;;;;;6305563;22;20026;-69
2023/04/01 11:02:29;;;;;;;15.68;7.55;;;;;;;;;;6306030;22;20029;-70
2023/04/01 11:05:24;;;;;;;10.90;7.00;;;;;;;;;;6306195;22;20380;-70
2023/04/01 11:08:00;;;;;;;12.07;6.47;;;;;;;;;;6278695;22;20019;-69
2023/04/01 11:10:50;;;;;;;9.68;6.35;;;;;;;;;;6278889;22;20023;-71
2023/04/01 11:13:18;;;;;;;11.80;7.03;;;;;;;;;;6279088;22;20026;-70
2023/04/01 11:16:01;;;;;;;10.70;5.90;;;;;;;;;;6279854;22;20029;-70
2023/04/01 11:18:50;;;;;;;11.35;7.53;;;;;;;;;;6280295;22;20023;-69
2023/04/01 11:21:21;;;;;;;10.88;6.50;;;;;;;;;;6308323;22;20456;-70
2023/04/01 11:24:08;;;;;;;10.57;6.78;;;;;;;;;;6280211;22;20393;-69
2023/04/01 11:26:54;;;;;;;10.95;6.43;;;;;;;;;;6280644;22;20020;-69
2023/04/01 11:29:31;;;;;;;13.95;6.75;;;;;;;;;;6280755;22;20326;-69
2023/04/01 11:32:20;;;;;;;11.70;5.90;;;;;;;;;;6280860;22;20019;-69
2023/04/01 11:35:02;;;;;;;10.32;8.00;;;;;;;;;;6280529;22;20027;-69
2023/04/01 11:37:39;;;;;;;9.40;5.97;;;;;;;;;;6280865;22;20099;-68
2023/04/01 11:40:35;;;;;;;;;;;;;;;;;;6251692;22;20066;-70
2023/04/01 11:43:40;;;;;;;8.25;5.50;;;;;;;;;;6307683;22;19985;-70
2023/04/01 11:46:49;;;;;;;9.68;5.85;;;;;;;;;;6271491;22;20046;-70
2023/04/01 11:49:30;;;;;;;10.68;5.13;;;;;;;;;;6280611;22;20053;-69
2023/04/01 11:52:38;;;;;;;8.48;5.30;;;;;;;;;;6280459;22;20094;-69
2023/04/01 11:55:15;;;;;;;10.50;5.28;;;;;;;;;;6288804;22;20069;-69
2023/04/01 11:58:12;;;;;;;8.48;4.80;;;;;;;;;;6280662;22;20086;-68
2023/04/01 12:00:43;;;;;;;7.63;4.20;;;;;;;;;;6225705;22;20351;-68
2023/04/01 12:03:43;;;;;;;8.55;4.18;;;;;;;;;;6280372;22;20387;-70
2023/04/01 12:06:24;;;;;;;9.45;4.45;;;;;;;;;;6257247;22;20445;-69
2023/04/01 12:08:56;;;;;;;9.98;4.68;;;;;;;;;;6307685;22;20045;-70
2023/04/01 12:11:35;;;;;;;8.85;4.13;;;;;;;;;;6307659;22;20015;-69
2023/04/01 12:14:03;;;;;;;6.93;3.75;;;;;;;;;;6307742;22;20453;-68
2023/04/01 12:16:49;;;;;;;8.95;4.00;;;;;;;;;;6307593;22;20090;-68
2023/04/01 12:19:17;;;;;;;8.70;4.00;;;;;;;;;;6280544;22;20322;-69
2023/04/01 12:21:49;;;;;;;9.18;3.78;;;;;;;;;;6307521;22;20020;-68
2023/04/01 12:24:22;;;;;;;7.03;3.50;;;;;;;;;;6307691;22;20022;-69
2023/04/01 12:26:59;;;;;;;9.30;3.72;;;;;;;;;;6307339;22;20022;-69
2023/04/01 12:29:54;;;;;;;7.65;3.10;;;;;;;;;;6307699;22;20015;-69
2023/04/01 12:32:34;;;;;;;7.78;2.85;;;;;;;;;;6307568;22;20119;-70
2023/04/01 12:35:20;;;;;;;6.75;3.13;;;;;;;;;;6307713;22;20022;-69
2023/04/01 12:38:06;;;;;;;6.47;3.00;;;;;;;;;;6307532;22;20023;-69
2023/04/01 12:40:52;;;;;;;5.70;3.05;;;;;;;;;;6307658;22;20039;-70
2023/04/01 12:43:38;;;;;;;5.18;2.40;;;;;;;;;;6307470;22;20019;-70
2023/04/01 12:46:26;;;;;;;7.65;3.63;;;;;;;;;;6307603;22;20015;-70
2023/04/01 12:49:08;;;;;;;9.43;3.40;;;;;;;;;;6307312;22;20027;-69
2023/04/01 12:51:42;;;;;;;6.57;3.10;;;;;;;;;;6307486;22;20020;-70
2023/04/01 12:54:39;;;;;;;4.13;2.88;;;;;;;;;;6280369;22;20015;-69
2023/04/01 12:57:15;;;;;;;7.07;2.88;;;;;;;;;;6267590;22;20461;-70
2023/04/01 12:59:55;;;;;;;9.88;3.70;;;;;;;;;;6280227;22;20015;-69
2023/04/01 13:02:29;;;;;;;8.55;4.32;;;;;;;;;;6307161;22;20021;-69
2023/04/01 13:05:15;;;;;;;6.35;3.58;;;;;;;;;;6307225;22;20015;-69
2023/04/01 13:07:43;;;;;;;8.75;4.03;;;;;;;;;;6306995;22;20074;-69
2023/04/01 13:10:14;;;;;;;8.82;4.07;;;;;;;;;;6307674;22;20011;-69
2023/04/01 13:12:45;;;;;;;8.95;3.88;;;;;;;;;;6307318;22;20015;-69
2023/04/01 13:15:15;;;;;;;10.27;4.30;;;;;;;;;;6307090;22;20382;-69
2023/04/01 13:17:49;;;;;;;8.25;3.67;;;;;;;;;;6307116;22;20090;-69
2023/04/01 13:20:17;;;;;;;6.90;3.55;;;;;;;;;;6307610;22;20019;-69
2023/04/01 13:22:45;;;;;;;6.88;3.60;;;;;;;;;;6307052;22;20015;-68
2023/04/01 13:25:35;;;;;;;7.22;3.80;;;;;;;;;;6279953;22;20022;-69
2023/04/01 13:28:25;;;;;;;8.43;3.38;;;;;;;;;;6306910;22;20073;-69
2023/04/01 13:31:13;;;;;;;8.70;4.10;;;;;;;;;;6306996;22;20019;-70
2023/04/01 13:33:56;;;;;;;8.40;4.43;;;;;;;;;;6307062;22;20090;-68
2023/04/01 13:36:38;;;;;;;8.57;3.47;;;;;;;;;;6306851;22;20015;-69
2023/04/01 13:39:15;;;;;;;9.00;4.38;;;;;;;;;;6306281;22;20096;-69
2023/04/01 13:41:47;;;;;;;13.63;5.53;;;;;;;;;;6279457;22;20019;-69
2023/04/01 13:44:18;;;;;;;9.48;4.50;;;;;;;;;;6279733;22;20492;-69
2023/04/01 13:47:04;;;;;;;8.27;4.80;;;;;;;;;;6306713;22;20019;-69
2023/04/01 13:49:35;;;;;;;11.18;6.15;;;;;;;;;;6279366;22;20467;-68
2023/04/01 13:52:24;;;;;;;15.45;6.15;;;;;;;;;;6306770;22;20039;-69
2023/04/01 13:55:10;;;;;;;15.73;7.93;;;;;;;;;;6306745;22;20029;-69
2023/04/01 13:57:54;;;;;;;16.40;7.00;;;;;;;;;;6306826;22;20118;-69
2023/04/01 14:00:34;;;;;;;11.63;5.70;;;;;;;;;;6280174;22;20023;-68
2023/04/01 14:03:20;;;;;;;11.32;6.45;;;;;;;;;;6306823;22;20018;-70
2023/04/01 14:06:00;;;;;;;15.85;7.18;;;;;;;;;;6306998;22;20026;-69
2023/04/01 14:08:37;;;;;;;10.57;5.55;;;;;;;;;;6306727;22;20015;-68
2023/04/01 14:11:17;;;;;;;11.07;5.35;;;;;;;;;;6306699;22;20033;-69
2023/04/01 14:14:00;;;;;;;12.73;5.38;;;;;;;;;;6306666;22;20070;-68
2023/04/01 14:16:46;;;;;;;10.75;4.72;;;;;;;;;;6306774;22;20035;-69
2023/04/01 14:19:13;;;;;;;10.77;5.10;;;;;;;;;;6306582;22;20019;-69
2023/04/01 14:21:52;;;;;;;10.65;4.85;;;;;;;;;;6305640;22;20022;-69
2023/04/01 14:24:39;;;;;;;10.60;5.15;;;;;;;;;;6306214;22;20011;-59
2023/04/01 14:27:12;;;;;;;10.13;5.68;;;;;;;;;;6306376;22;20015;-60
2023/04/01 14:29:57;;;;;;;11.98;6.35;;;;;;;;;;6304943;22;20493;-59
2023/04/01 14:32:35;;;;;;;20.45;15.73;;;;;;;;;;6279054;22;20372;-59
2023/04/01 14:35:21;;;;;;;17.08;13.75;;;;;;;;;;6306160;22;20012;-59
2023/04/01 14:37:54;;;;;;;15.10;10.95;;;;;;;;;;6305927;22;20086;-60
2023/04/01 14:40:40;;;;;;;12.18;7.18;;;;;;;;;;6305318;22;20015;-59
2023/04/01 14:43:07;;;;;;;;;;;;;;;;;;6305261;22;20026;-58
2023/04/01 14:45:55;;;;;;;12.43;5.97;;;;;;;;;;6305176;22;19946;-59
2023/04/01 14:48:26;;;;;;;11.18;5.95;;;;;;;;;;6305722;22;20023;-60
2023/04/01 14:50:55;;;;;;;12.77;6.38;;;;;;;;;;6306090;22;20021;-60
2023/04/01 14:53:25;;;;;;;13.45;6.82;;;;;;;;;;6307098;22;20019;-59
2023/04/01 14:55:55;;;;;;;14.00;7.47;;;;;;;;;;6307578;22;20015;-61
2023/04/01 14:58:26;;;;;;;10.90;6.15;;;;;;;;;;6307812;22;20019;-59
2023/04/01 15:01:00;;;;;;;10.32;5.68;;;;;;;;;;6279667;22;20022;-59
2023/04/01 15:03:33;;;;;;;9.00;6.13;;;;;;;;;;6307030;22;20405;-60
2023/04/01 15:06:10;;;;;;;9.07;5.38;;;;;;;;;;6307733;22;20464;-61
2023/04/01 15:08:52;;;;;;;11.73;5.97;;;;;;;;;;6307920;22;20459;-60
2023/04/01 15:11:34;;;;;;;13.32;6.45;;;;;;;;;;6308345;22;20073;-60
2023/04/01 15:14:05;;;;;;;14.90;6.47;;;;;;;;;;6308184;22;20023;-60
2023/04/01 15:16:39;;;;;;;10.07;5.97;;;;;;;;;;6308147;22;20015;-59
2023/04/01 15:19:12;;;;;;;9.32;6.20;;;;;;;;;;6307814;22;20064;-60